Time;durP1;ratioP1;P1;durP2;ratioP2;P2;SDS_P1;SDS_P2;PMS_P1;PMS_P2;Temp;Humidity;BMP_temperature;BMP_pressure;BME280_temperature;BME280_humidity;BME280_pressure;Samples;Min_cycle;Max_cycle;Signal;HPM_P1;HPM_P2
2023/07/01 00:01:37;;;;;;;4.30;2.90;;;;;;;24.18;57.40;100932.67;110656;1260;22748;-47
2023/07/01 00:04:05;;;;;;;5.60;3.20;;;;;;;24.16;57.60;100935.14;110631;1251;22868;-46
2023/07/01 00:06:32;;;;;;;3.90;2.90;;;;;;;24.15;57.75;100926.71;110298;1269;22384;-47
2023/07/01 00:08:59;;;;;;;6.30;3.30;;;;;;;24.14;57.65;100927.48;110603;1256;22392;-45
2023/07/01 00:11:28;;;;;;;3.50;2.80;;;;;;;24.14;57.77;100927.84;110605;1259;22613;-45
2023/07/01 00:13:55;;;;;;;3.50;3.00;;;;;;;24.13;57.74;100926.46;110537;1263;22356;-45
2023/07/01 00:16:22;;;;;;;5.10;3.00;;;;;;;24.13;57.79;100926.14;110643;1260;22277;-47
2023/07/01 00:18:49;;;;;;;5.80;2.90;;;;;;;24.13;57.68;100925.83;110192;1267;22181;-45
2023/07/01 00:21:15;;;;;;;7.30;2.90;;;;;;;24.11;57.54;100928.23;110597;1267;22305;-45
2023/07/01 00:23:44;;;;;;;8.60;3.30;;;;;;;24.11;57.66;100928.06;110593;1263;22363;-50
2023/07/01 00:26:11;;;;;;;5.60;3.30;;;;;;;24.10;57.75;100930.60;110546;1256;22435;-47
2023/07/01 00:28:38;;;;;;;5.50;3.60;;;;;;;24.10;57.60;100927.41;110587;1256;22275;-44
2023/07/01 00:31:05;;;;;;;3.00;2.60;;;;;;;24.10;57.77;100929.03;110574;1260;22415;-44
2023/07/01 00:33:32;;;;;;;3.80;2.90;;;;;;;24.10;57.77;100928.33;110580;1264;22341;-47
2023/07/01 00:36:00;;;;;;;7.70;3.60;;;;;;;24.09;58.08;100927.70;110600;1264;22145;-44
2023/07/01 00:38:27;;;;;;;5.10;3.10;;;;;;;24.08;58.14;100928.10;110550;1261;23203;-45
2023/07/01 00:40:54;;;;;;;5.70;2.60;;;;;;;24.08;58.02;100928.85;110592;1263;22354;-46
2023/07/01 00:43:23;;;;;;;5.80;3.30;;;;;;;24.07;58.03;100926.40;110611;1261;22294;-44
2023/07/01 00:45:50;;;;;;;5.30;3.30;;;;;;;24.06;58.06;100922.97;110633;1251;22138;-44
2023/07/01 00:48:26;;;;;;;3.80;2.80;;;;;;;24.05;58.10;100917.91;110445;1268;22227;-46
2023/07/01 00:50:53;;;;;;;5.60;3.10;;;;;;;24.03;58.17;100920.49;110117;1273;22403;-44
2023/07/01 00:53:22;;;;;;;5.90;3.40;;;;;;;24.03;58.23;100915.41;110544;1264;22231;-47
2023/07/01 00:55:50;;;;;;;6.00;3.40;;;;;;;24.02;58.11;100918.09;110587;1267;23144;-50
2023/07/01 00:58:17;;;;;;;4.50;3.40;;;;;;;24.02;58.29;100919.17;110603;1256;22154;-46
2023/07/01 01:00:44;;;;;;;3.70;3.10;;;;;;;24.01;58.29;100919.39;110469;1268;22134;-45
2023/07/01 01:03:26;;;;;;;5.20;3.70;;;;;;;24.01;58.17;100922.60;110438;1265;22616;-46
2023/07/01 01:06:33;;;;;;;3.50;3.10;;;;;;;23.99;58.03;100918.31;110400;1266;22144;-45
2023/07/01 01:09:10;;;;;;;6.80;2.80;;;;;;;23.94;57.89;100923.13;110605;1259;22971;-46
2023/07/01 01:11:43;;;;;;;6.40;3.50;;;;;;;23.87;57.90;100924.94;110599;1260;22725;-48
2023/07/01 01:14:11;;;;;;;5.90;3.10;;;;;;;23.81;57.97;100921.11;110361;1269;22363;-45
2023/07/01 01:16:39;;;;;;;6.40;3.30;;;;;;;23.78;58.08;100916.03;110493;1265;22844;-45
2023/07/01 01:19:19;;;;;;;4.20;3.40;;;;;;;23.77;58.05;100910.97;110174;1273;22501;-46
2023/07/01 01:21:52;;;;;;;5.70;3.00;;;;;;;23.77;58.12;100913.45;110335;1259;22398;-45
2023/07/01 01:24:19;;;;;;;6.50;3.10;;;;;;;23.76;58.01;100911.00;110153;1269;22157;-46
2023/07/01 01:26:49;;;;;;;3.80;3.20;;;;;;;23.75;57.95;100910.73;110200;1264;22886;-47
2023/07/01 01:29:16;;;;;;;4.70;3.10;;;;;;;23.72;58.28;100913.29;110147;1270;22859;-50
2023/07/01 01:31:43;;;;;;;5.20;3.50;;;;;;;23.69;58.56;100907.88;110116;1268;22893;-48
2023/07/01 01:34:10;;;;;;;5.20;3.30;;;;;;;23.65;58.22;100910.09;110369;1264;22317;-46
2023/07/01 01:36:40;;;;;;;4.50;3.00;;;;;;;23.62;58.19;100912.09;110410;1256;22153;-48
2023/07/01 01:39:07;;;;;;;4.10;3.00;;;;;;;23.60;58.38;100912.96;110178;1256;22367;-47
2023/07/01 01:41:41;;;;;;;3.00;2.80;;;;;;;23.58;58.38;100911.66;110140;1270;22216;-45
2023/07/01 01:44:10;;;;;;;4.50;3.30;;;;;;;23.57;58.39;100911.92;110181;1269;22315;-49
2023/07/01 01:46:37;;;;;;;3.00;2.80;;;;;;;23.56;58.22;100913.58;110349;1259;22311;-49
2023/07/01 01:49:06;;;;;;;4.10;3.50;;;;;;;23.55;58.23;100915.79;110230;1260;22369;-44
2023/07/01 01:51:34;;;;;;;5.00;3.10;;;;;;;23.55;57.98;100912.28;110366;1256;22459;-45
2023/07/01 01:54:00;;;;;;;5.60;3.40;;;;;;;23.53;57.93;100910.08;110431;1270;22365;-52
2023/07/01 01:56:31;;;;;;;5.00;3.50;;;;;;;23.53;58.12;100911.16;110553;1261;22141;-49
2023/07/01 01:58:57;;;;;;;6.50;3.60;;;;;;;23.52;58.13;100911.02;110349;1267;22362;-47
2023/07/01 02:01:25;;;;;;;5.90;3.30;;;;;;;23.52;58.08;100914.74;110488;1262;22138;-44
2023/07/01 02:03:51;;;;;;;5.30;3.70;;;;;;;23.51;57.75;100910.62;110569;1264;22422;-48
2023/07/01 02:06:18;;;;;;;3.90;3.10;;;;;;;23.49;57.83;100911.10;110448;1261;22090;-45
2023/07/01 02:08:46;;;;;;;4.00;3.40;;;;;;;23.49;57.65;100909.35;110540;1256;22145;-51
2023/07/01 02:11:12;;;;;;;7.20;3.10;;;;;;;23.49;57.40;100912.54;110341;1267;23064;-46
2023/07/01 02:13:39;;;;;;;5.10;3.60;;;;;;;23.49;57.44;100916.61;110591;1259;23026;-45
2023/07/01 02:16:06;;;;;;;3.70;3.10;;;;;;;23.50;57.16;100917.05;110581;1259;23089;-45
2023/07/01 02:18:33;;;;;;;4.80;3.30;;;;;;;23.51;56.93;100916.09;110440;1265;22314;-46
2023/07/01 02:21:00;;;;;;;4.00;2.90;;;;;;;23.50;56.94;100923.39;110495;1266;22419;-46
2023/07/01 02:23:27;;;;;;;5.50;3.30;;;;;;;23.50;56.99;100926.07;110214;1264;22484;-49
2023/07/01 02:25:54;;;;;;;7.60;3.10;;;;;;;23.50;56.87;100921.98;110357;1263;22455;-44
2023/07/01 02:28:21;;;;;;;4.10;3.20;;;;;;;23.51;56.89;100924.27;110564;1259;22820;-44
2023/07/01 02:30:50;;;;;;;5.40;3.10;;;;;;;23.49;56.85;100920.29;110475;1261;22583;-44
2023/07/01 02:33:17;;;;;;;3.10;2.90;;;;;;;23.49;56.77;100919.58;110467;1265;22128;-47
2023/07/01 02:35:44;;;;;;;3.00;2.80;;;;;;;23.50;56.66;100924.28;110586;1262;22304;-45
2023/07/01 02:38:11;;;;;;;3.20;3.00;;;;;;;23.51;56.70;100921.39;110599;1261;22357;-47
2023/07/01 02:40:38;;;;;;;4.90;3.30;;;;;;;23.54;56.57;100921.20;110623;1256;22353;-45
2023/07/01 02:43:05;;;;;;;3.10;2.70;;;;;;;23.55;56.13;100927.83;110564;1251;22428;-47
2023/07/01 02:45:32;;;;;;;4.60;3.20;;;;;;;23.55;55.88;100930.64;110577;1263;22324;-47
2023/07/01 02:47:59;;;;;;;3.80;3.30;;;;;;;23.56;55.77;100928.66;110553;1259;22299;-50
2023/07/01 02:50:26;;;;;;;5.30;3.20;;;;;;;23.56;55.87;100930.07;110598;1259;22540;-45
2023/07/01 02:52:53;;;;;;;4.10;3.20;;;;;;;23.59;56.00;100932.88;110221;1266;22534;-46
2023/07/01 02:55:20;;;;;;;4.50;3.60;;;;;;;23.61;56.08;100935.36;110569;1252;22423;-44
2023/07/01 02:57:47;;;;;;;8.00;3.90;;;;;;;23.64;56.02;100935.86;110590;1252;22302;-46
2023/07/01 03:00:14;;;;;;;6.30;3.40;;;;;;;23.64;55.80;100941.15;110506;1261;22418;-44
2023/07/01 03:02:42;;;;;;;6.20;3.60;;;;;;;23.63;55.90;100943.33;110587;1267;22417;-45
2023/07/01 03:05:09;;;;;;;3.80;3.00;;;;;;;23.64;56.08;100946.97;110455;1265;22910;-45
2023/07/01 03:07:37;;;;;;;3.60;3.20;;;;;;;23.66;56.05;100944.89;110472;1262;22290;-46
2023/07/01 03:10:06;;;;;;;3.40;3.10;;;;;;;23.67;55.48;100942.40;110614;1259;22378;-44
2023/07/01 03:12:34;;;;;;;6.30;3.80;;;;;;;23.64;55.39;100941.71;110444;1266;22297;-44
2023/07/01 03:15:00;;;;;;;5.60;3.60;;;;;;;23.61;55.56;100940.83;110610;1259;22392;-45
2023/07/01 03:17:27;;;;;;;5.70;3.30;;;;;;;23.59;55.62;100939.27;110528;1256;22871;-44
2023/07/01 03:19:54;;;;;;;4.90;3.40;;;;;;;23.57;55.96;100941.67;110553;1264;22316;-45
2023/07/01 03:22:21;;;;;;;3.10;2.80;;;;;;;23.56;56.06;100944.39;110624;1264;23120;-46
2023/07/01 03:24:48;;;;;;;3.50;3.20;;;;;;;23.56;55.96;100946.32;110416;1266;22211;-50
2023/07/01 03:27:16;;;;;;;5.50;3.20;;;;;;;23.57;56.15;100941.89;110563;1253;23036;-47
2023/07/01 03:29:43;;;;;;;5.60;3.50;;;;;;;23.57;56.10;100941.48;110545;1256;22235;-47
2023/07/01 03:32:10;;;;;;;6.60;3.20;;;;;;;23.58;56.30;100936.80;110276;1267;22329;-46
2023/07/01 03:34:38;;;;;;;6.20;3.10;;;;;;;23.60;56.47;100939.90;110340;1267;22360;-45
2023/07/01 03:37:06;;;;;;;5.60;4.10;;;;;;;23.62;56.63;100937.98;110559;1252;22831;-44
2023/07/01 03:39:33;;;;;;;5.90;3.30;;;;;;;23.65;56.73;100940.36;110582;1260;22395;-49
2023/07/01 03:41:59;;;;;;;4.40;3.40;;;;;;;23.69;56.84;100939.90;110625;1259;23218;-46
2023/07/01 03:44:26;;;;;;;7.20;3.60;;;;;;;23.78;57.01;100939.39;110611;1259;23145;-45
2023/07/01 03:46:53;;;;;;;4.80;3.30;;;;;;;23.97;57.08;100938.86;110577;1259;23075;-46
2023/07/01 03:49:20;;;;;;;3.80;3.30;;;;;;;24.28;56.53;100938.55;110566;1266;22157;-49
2023/07/01 03:51:46;;;;;;;5.40;2.80;;;;;;;24.59;55.70;100946.59;110615;1259;22443;-45
2023/07/01 03:54:13;;;;;;;4.30;3.40;;;;;;;24.87;55.02;100943.02;110591;1252;22280;-50
2023/07/01 03:56:40;;;;;;;7.70;2.80;;;;;;;25.15;54.36;100948.05;110615;1263;22353;-45
2023/07/01 03:59:07;;;;;;;4.30;2.80;;;;;;;25.40;53.54;100944.05;110620;1251;22369;-46
2023/07/01 04:01:36;;;;;;;5.80;3.40;;;;;;;25.59;53.05;100944.45;110646;1263;22553;-45
2023/07/01 04:04:03;;;;;;;4.60;3.60;;;;;;;25.73;52.48;100949.15;110270;1256;22857;-46
2023/07/01 04:06:30;;;;;;;4.30;2.90;;;;;;;25.84;52.27;100948.80;110626;1253;22597;-47
2023/07/01 04:08:57;;;;;;;4.10;3.30;;;;;;;25.88;51.95;100954.17;110605;1259;22334;-49
2023/07/01 04:11:24;;;;;;;4.90;3.20;;;;;;;25.83;52.11;100951.73;110668;1259;22353;-45
2023/07/01 04:13:52;;;;;;;3.50;3.20;;;;;;;25.74;52.31;100953.36;110481;1266;23187;-48
2023/07/01 04:16:19;;;;;;;3.30;3.00;;;;;;;25.66;52.46;100955.44;110624;1259;23174;-45
2023/07/01 04:18:46;;;;;;;4.40;3.70;;;;;;;25.61;52.54;100955.66;110576;1268;22356;-46
2023/07/01 04:21:13;;;;;;;3.10;2.80;;;;;;;25.59;52.64;100962.44;110312;1271;22261;-48
2023/07/01 04:23:40;;;;;;;3.40;2.80;;;;;;;25.56;52.70;100960.19;110579;1266;22784;-46
2023/07/01 04:26:06;;;;;;;5.90;3.30;;;;;;;25.52;52.88;100955.17;110662;1263;22387;-46
2023/07/01 04:28:33;;;;;;;3.80;3.10;;;;;;;25.47;52.98;100954.64;110618;1267;22252;-45
2023/07/01 04:31:00;;;;;;;5.00;2.90;;;;;;;25.42;52.93;100955.45;110592;1259;22578;-46
2023/07/01 04:33:27;;;;;;;3.70;3.40;;;;;;;25.38;53.28;100955.58;110599;1262;22744;-47
2023/07/01 04:35:54;;;;;;;3.90;3.20;;;;;;;25.34;53.25;100957.85;110595;1255;23141;-45
2023/07/01 04:38:21;;;;;;;10.00;3.60;;;;;;;25.30;53.23;100959.20;110542;1256;22310;-45
2023/07/01 04:40:48;;;;;;;6.00;3.30;;;;;;;25.29;53.35;100959.47;110639;1259;22362;-48
2023/07/01 04:43:20;;;;;;;5.60;3.10;;;;;;;25.28;53.55;100958.13;110272;1268;22319;-50
2023/07/01 04:45:47;;;;;;;3.20;3.00;;;;;;;25.28;53.63;100957.63;110624;1257;22973;-48
2023/07/01 04:48:13;;;;;;;4.40;3.20;;;;;;;25.28;53.64;100954.62;110613;1259;22387;-45
2023/07/01 04:50:40;;;;;;;3.70;3.30;;;;;;;25.28;53.70;100959.08;110606;1262;22345;-49
2023/07/01 04:53:07;;;;;;;3.70;3.20;;;;;;;25.29;54.01;100961.30;110580;1268;22098;-47
2023/07/01 04:55:34;;;;;;;5.90;3.40;;;;;;;25.31;54.38;100961.30;110655;1264;22184;-45
2023/07/01 04:58:01;;;;;;;4.40;3.40;;;;;;;25.34;54.63;100967.08;110638;1259;22350;-46
2023/07/01 05:00:28;;;;;;;4.00;3.60;;;;;;;25.38;55.09;100970.43;110614;1263;22365;-47
2023/07/01 05:02:54;;;;;;;3.80;3.40;;;;;;;25.43;55.18;100963.85;110610;1262;22420;-49
2023/07/01 05:05:22;;;;;;;3.90;3.40;;;;;;;25.51;55.05;100964.28;110569;1259;22302;-49
2023/07/01 05:07:49;;;;;;;4.00;3.40;;;;;;;25.61;55.20;100965.77;110579;1252;22224;-51
2023/07/01 05:10:16;;;;;;;3.60;3.20;;;;;;;25.76;54.99;100965.05;110348;1271;22411;-45
2023/07/01 05:12:44;;;;;;;6.30;3.30;;;;;;;25.97;54.61;100966.58;110281;1260;22166;-45
2023/07/01 05:15:11;;;;;;;6.80;3.40;;;;;;;26.20;53.62;100965.58;110599;1259;23009;-46
2023/07/01 05:17:38;;;;;;;5.10;3.40;;;;;;;26.45;52.45;100964.45;110629;1253;22473;-48
2023/07/01 05:20:06;;;;;;;3.40;3.10;;;;;;;26.76;51.65;100967.35;110597;1259;22123;-46
2023/07/01 05:22:33;;;;;;;3.90;3.30;;;;;;;27.11;51.32;100962.84;110567;1267;22299;-48
2023/07/01 05:25:00;;;;;;;3.30;3.00;;;;;;;27.51;50.86;100961.27;110398;1267;22432;-47
2023/07/01 05:27:27;;;;;;;5.10;3.60;;;;;;;27.93;50.17;100961.79;110612;1259;22308;-48
2023/07/01 05:29:54;;;;;;;3.60;3.30;;;;;;;28.33;49.59;100961.94;110301;1267;22356;-46
2023/07/01 05:32:21;;;;;;;3.50;3.20;;;;;;;28.68;48.50;100966.73;110485;1267;22350;-48
2023/07/01 05:34:48;;;;;;;4.70;3.60;;;;;;;28.89;47.66;100967.16;110595;1269;22521;-49
2023/07/01 05:37:14;;;;;;;4.10;3.30;;;;;;;29.00;46.81;100965.23;110580;1263;23139;-45
2023/07/01 05:39:41;;;;;;;5.20;3.10;;;;;;;29.03;46.41;100965.33;110613;1259;23086;-52
2023/07/01 05:42:08;;;;;;;3.90;3.30;;;;;;;28.99;45.80;100965.48;110470;1258;22881;-48
2023/07/01 05:44:35;;;;;;;3.60;3.30;;;;;;;28.91;45.92;100967.46;110637;1256;22746;-51
2023/07/01 05:47:02;;;;;;;4.20;3.40;;;;;;;28.87;46.16;100970.21;110417;1266;22503;-50
2023/07/01 05:49:29;;;;;;;3.10;2.80;;;;;;;28.85;46.54;100971.96;110357;1265;23068;-47
2023/07/01 05:51:55;;;;;;;5.30;3.20;;;;;;;28.88;46.98;100970.86;110573;1252;22422;-47
2023/07/01 05:54:23;;;;;;;5.00;3.40;;;;;;;28.94;47.40;100965.20;110575;1259;23130;-49
2023/07/01 05:56:49;;;;;;;4.60;3.00;;;;;;;29.07;47.25;100971.02;110622;1252;22088;-46
2023/07/01 05:59:19;;;;;;;3.90;3.20;;;;;;;29.25;46.96;100977.48;110567;1260;22334;-49
2023/07/01 06:01:45;;;;;;;3.60;3.30;;;;;;;29.45;46.49;100979.79;110685;1263;22379;-46
2023/07/01 06:04:12;;;;;;;3.50;3.20;;;;;;;29.64;45.82;100978.66;110641;1260;22164;-48
2023/07/01 06:06:39;;;;;;;4.10;3.40;;;;;;;29.82;45.07;100983.14;110637;1259;22487;-46
2023/07/01 06:09:09;;;;;;;5.20;3.40;;;;;;;29.90;44.62;100984.63;110593;1263;22433;-48
2023/07/01 06:11:37;;;;;;;4.50;3.70;;;;;;;29.82;45.22;100982.99;110427;1259;23595;-49
2023/07/01 06:14:05;;;;;;;3.50;3.20;;;;;;;29.64;45.89;100986.35;110632;1263;23106;-48
2023/07/01 06:16:31;;;;;;;4.00;3.60;;;;;;;29.51;46.65;100984.91;110427;1263;23132;-48
2023/07/01 06:18:58;;;;;;;5.00;3.40;;;;;;;29.47;47.03;100988.73;110581;1260;22310;-48
2023/07/01 06:21:25;;;;;;;3.80;3.40;;;;;;;29.51;47.04;100987.64;110629;1252;22457;-46
2023/07/01 06:23:55;;;;;;;3.50;3.20;;;;;;;29.59;46.25;100987.90;110631;1253;22208;-48
2023/07/01 06:26:22;;;;;;;3.70;3.40;;;;;;;29.68;45.79;100981.52;110350;1263;23184;-48
2023/07/01 06:28:49;;;;;;;3.40;3.10;;;;;;;29.75;45.08;100980.06;110630;1264;22247;-47
2023/07/01 06:31:16;;;;;;;3.80;3.40;;;;;;;29.84;44.88;100983.70;110508;1267;23204;-47
2023/07/01 06:33:44;;;;;;;3.80;3.20;;;;;;;29.91;44.86;100979.55;110659;1264;22337;-48
2023/07/01 06:36:12;;;;;;;4.60;3.60;;;;;;;29.96;45.05;100983.21;110619;1263;22300;-48
2023/07/01 06:38:40;;;;;;;5.20;3.60;;;;;;;29.95;45.25;100985.38;110596;1259;22385;-50
2023/07/01 06:41:07;;;;;;;6.80;3.50;;;;;;;29.90;45.25;100985.94;110616;1256;22398;-46
2023/07/01 06:43:39;;;;;;;4.50;3.60;;;;;;;29.82;45.72;100986.58;110542;1263;22459;-45
2023/07/01 06:46:08;;;;;;;;;;;;;;;29.71;45.82;100986.77;110646;1259;22422;-45
2023/07/01 06:48:35;;;;;;;3.60;2.80;;;;;;;29.57;45.13;100990.42;110631;1261;22983;-46
2023/07/01 06:51:04;;;;;;;3.80;3.50;;;;;;;29.45;45.02;100992.85;110632;1263;22376;-47
2023/07/01 06:53:30;;;;;;;3.30;2.80;;;;;;;29.35;44.88;100990.86;110269;1268;23062;-46
2023/07/01 06:55:57;;;;;;;3.10;2.80;;;;;;;29.25;44.51;100990.77;110587;1263;22412;-48
2023/07/01 06:58:24;;;;;;;5.60;3.20;;;;;;;29.16;44.38;100986.45;110369;1258;22469;-46
2023/07/01 07:00:51;;;;;;;3.30;3.00;;;;;;;29.09;43.66;100986.77;110419;1254;23174;-48
2023/07/01 07:03:19;;;;;;;3.40;2.90;;;;;;;29.03;43.67;100991.41;110396;1268;23218;-47
2023/07/01 07:05:46;;;;;;;3.00;2.70;;;;;;;29.02;43.23;100991.83;110640;1264;22272;-46
2023/07/01 07:08:13;;;;;;;2.50;2.40;;;;;;;29.07;43.05;100993.32;110548;1262;22383;-48
2023/07/01 07:10:41;;;;;;;2.80;2.60;;;;;;;29.13;42.43;100996.72;110640;1262;23124;-46
2023/07/01 07:13:09;;;;;;;3.20;2.90;;;;;;;29.18;41.72;100996.10;110673;1259;22386;-45
2023/07/01 07:15:36;;;;;;;3.40;2.70;;;;;;;29.23;41.50;100995.21;110604;1259;22129;-46
2023/07/01 07:18:04;;;;;;;2.70;2.50;;;;;;;29.29;41.50;100999.11;110160;1269;22993;-47
2023/07/01 07:20:31;;;;;;;3.00;2.60;;;;;;;29.35;41.40;100997.58;110351;1268;22102;-49
2023/07/01 07:22:58;;;;;;;2.70;2.50;;;;;;;29.42;41.21;100998.14;110263;1270;22289;-45
2023/07/01 07:25:25;;;;;;;2.70;2.50;;;;;;;29.53;42.29;100999.09;110630;1263;22291;-46
2023/07/01 07:27:52;;;;;;;3.00;2.30;;;;;;;29.64;42.36;100999.75;110514;1263;22426;-47
2023/07/01 07:30:20;;;;;;;3.30;2.80;;;;;;;29.78;41.20;101000.39;110668;1256;22468;-47
2023/07/01 07:32:48;;;;;;;2.50;2.30;;;;;;;29.95;40.25;101000.14;110572;1274;23170;-48
2023/07/01 07:35:15;;;;;;;4.70;2.30;;;;;;;30.11;38.40;101003.52;110401;1267;22177;-47
2023/07/01 07:37:42;;;;;;;3.00;2.50;;;;;;;30.25;36.96;101004.42;110573;1255;22888;-45
2023/07/01 07:40:09;;;;;;;3.10;2.30;;;;;;;30.38;37.18;101008.86;110665;1259;22784;-48
2023/07/01 07:42:36;;;;;;;2.60;2.40;;;;;;;30.48;37.52;101010.25;110404;1257;22410;-48
2023/07/01 07:45:03;;;;;;;3.20;2.10;;;;;;;30.58;37.24;101011.10;110652;1262;23076;-45
2023/07/01 07:47:30;;;;;;;2.60;2.30;;;;;;;30.65;36.74;101011.80;110576;1262;22300;-48
2023/07/01 07:49:57;;;;;;;2.90;2.60;;;;;;;30.70;36.25;101009.83;110588;1256;22335;-48
2023/07/01 07:52:24;;;;;;;2.30;2.20;;;;;;;30.75;36.86;101011.81;110612;1263;22132;-45
2023/07/01 07:54:51;;;;;;;3.30;2.50;;;;;;;30.80;36.86;101009.70;110628;1259;22300;-46
2023/07/01 07:57:18;;;;;;;3.00;2.80;;;;;;;30.84;36.42;101011.80;110588;1262;22159;-48
2023/07/01 07:59:44;;;;;;;3.10;2.70;;;;;;;30.89;36.80;101015.67;110675;1262;22153;-45
2023/07/01 08:02:11;;;;;;;3.30;3.00;;;;;;;30.93;37.18;101012.17;110687;1256;23154;-47
2023/07/01 08:04:40;;;;;;;4.50;2.90;;;;;;;30.96;37.93;101012.87;110576;1255;22148;-51
2023/07/01 08:07:07;;;;;;;3.30;3.00;;;;;;;31.00;37.59;101012.89;110617;1262;22412;-46
2023/07/01 08:09:37;;;;;;;2.80;2.50;;;;;;;30.98;37.47;101014.30;110638;1262;22353;-46
2023/07/01 08:12:04;;;;;;;3.30;3.00;;;;;;;30.95;38.19;101015.76;110597;1264;22415;-49
2023/07/01 08:14:33;;;;;;;3.20;2.90;;;;;;;30.91;38.80;101014.57;110283;1265;23060;-49
2023/07/01 08:17:00;;;;;;;4.00;3.00;;;;;;;30.84;39.95;101015.92;110584;1268;23026;-51
2023/07/01 08:19:27;;;;;;;3.70;3.30;;;;;;;30.77;40.96;101012.73;110597;1264;22801;-47
2023/07/01 08:21:54;;;;;;;3.50;3.20;;;;;;;30.68;41.21;101011.50;110599;1269;22298;-45
2023/07/01 08:24:21;;;;;;;3.50;3.20;;;;;;;30.60;41.32;101011.98;110614;1263;22286;-47
2023/07/01 08:26:48;;;;;;;6.20;3.40;;;;;;;30.51;42.32;101011.09;110560;1265;23121;-48
2023/07/01 08:29:15;;;;;;;3.50;3.20;;;;;;;30.43;43.03;101010.64;110623;1256;22154;-48
2023/07/01 08:31:42;;;;;;;4.00;3.40;;;;;;;30.36;44.26;101012.03;110611;1262;23251;-45
2023/07/01 08:34:09;;;;;;;6.00;3.90;;;;;;;30.30;45.17;101014.86;110684;1260;22293;-51
2023/07/01 08:36:36;;;;;;;3.60;3.30;;;;;;;30.23;45.26;101013.52;110565;1259;22372;-45
2023/07/01 08:39:03;;;;;;;3.50;3.20;;;;;;;30.16;45.00;101014.05;110615;1256;22121;-49
2023/07/01 08:41:30;;;;;;;3.20;2.90;;;;;;;30.11;45.28;101013.33;110628;1263;22299;-46
2023/07/01 08:43:56;;;;;;;3.80;3.00;;;;;;;30.07;45.33;101011.58;110415;1263;22116;-49
2023/07/01 08:46:23;;;;;;;3.20;2.90;;;;;;;30.06;44.92;101013.98;110364;1266;22395;-46
2023/07/01 08:48:51;;;;;;;3.10;2.90;;;;;;;30.07;44.77;101009.98;110572;1266;22274;-51
2023/07/01 08:51:29;;;;;;;5.70;3.20;;;;;;;30.09;44.87;101008.00;110416;1266;23190;-46
2023/07/01 08:53:57;;;;;;;3.60;2.90;;;;;;;30.12;44.92;101015.05;110589;1266;22205;-46
2023/07/01 08:56:24;;;;;;;10.60;3.10;;;;;;;30.15;45.02;101019.03;110539;1265;22947;-45
2023/07/01 08:58:50;;;;;;;4.20;3.00;;;;;;;30.18;45.82;101014.63;110659;1256;22947;-45
2023/07/01 09:01:18;;;;;;;3.80;3.50;;;;;;;30.20;46.91;101009.04;110597;1256;23230;-49
2023/07/01 09:03:48;;;;;;;3.80;3.50;;;;;;;30.21;47.72;101008.55;110630;1262;22286;-45
2023/07/01 09:06:15;;;;;;;5.60;3.50;;;;;;;30.21;48.14;101010.70;110254;1268;22443;-45
2023/07/01 09:08:42;;;;;;;9.10;4.10;;;;;;;30.20;48.51;101008.41;110599;1255;22458;-46
2023/07/01 09:11:14;;;;;;;3.70;3.10;;;;;;;30.21;48.62;101006.61;110306;1267;22404;-51
2023/07/01 09:13:41;;;;;;;4.00;3.60;;;;;;;30.21;48.51;101006.34;110304;1267;22219;-47
2023/07/01 09:16:08;;;;;;;3.50;3.20;;;;;;;30.22;48.36;101004.48;110446;1259;23122;-48
2023/07/01 09:18:35;;;;;;;3.80;3.50;;;;;;;30.24;48.50;101002.82;110256;1267;22186;-45
2023/07/01 09:21:02;;;;;;;3.80;3.40;;;;;;;30.27;48.64;101001.35;110320;1268;22411;-47
2023/07/01 09:23:34;;;;;;;4.10;3.20;;;;;;;30.29;48.45;101002.05;110574;1265;23213;-48
2023/07/01 09:26:07;;;;;;;4.60;3.80;;;;;;;30.31;48.65;101003.66;110599;1263;23124;-48
2023/07/01 09:28:34;;;;;;;6.40;3.60;;;;;;;30.32;48.75;100998.56;110542;1266;22135;-46
2023/07/01 09:31:01;;;;;;;4.30;3.90;;;;;;;30.31;48.83;101002.00;110261;1268;22445;-47
2023/07/01 09:33:29;;;;;;;4.90;3.40;;;;;;;30.31;48.56;100998.60;110689;1256;22133;-46
2023/07/01 09:36:01;;;;;;;4.30;3.60;;;;;;;30.32;48.79;100996.15;110587;1264;22223;-45
2023/07/01 09:38:32;;;;;;;3.80;3.40;;;;;;;30.33;48.73;100994.14;110585;1257;22169;-48
2023/07/01 09:41:19;;;;;;;4.10;3.20;;;;;;;30.34;48.81;100990.46;110306;1267;22131;-47
2023/07/01 09:43:47;;;;;;;3.50;3.20;;;;;;;30.36;48.89;100990.07;110596;1264;22397;-47
2023/07/01 09:46:14;;;;;;;3.60;3.20;;;;;;;30.37;49.16;100986.75;110641;1264;22417;-45
2023/07/01 09:48:57;;;;;;;4.20;3.40;;;;;;;30.39;49.11;100987.61;110609;1256;23152;-47
2023/07/01 09:51:26;;;;;;;3.60;3.30;;;;;;;30.42;49.21;100990.16;110572;1260;23066;-50
2023/07/01 09:53:53;;;;;;;3.60;3.30;;;;;;;30.45;49.30;100985.38;110617;1268;22368;-45
2023/07/01 09:56:20;;;;;;;3.20;2.90;;;;;;;30.49;49.40;100984.08;110587;1256;22412;-46
2023/07/01 09:58:50;;;;;;;4.20;3.20;;;;;;;30.54;49.62;100984.59;110640;1263;22317;-47
2023/07/01 10:01:17;;;;;;;4.60;3.20;;;;;;;30.60;49.27;100983.73;110579;1263;22164;-45
2023/07/01 10:03:44;;;;;;;3.30;3.00;;;;;;;30.64;49.26;100978.58;110288;1266;23056;-46
2023/07/01 10:06:11;;;;;;;3.60;3.00;;;;;;;30.69;49.39;100976.35;110642;1264;22311;-51
2023/07/01 10:08:41;;;;;;;4.10;3.00;;;;;;;30.68;49.60;100980.33;110323;1263;22830;-58
2023/07/01 10:11:15;;;;;;;4.50;3.00;;;;;;;30.74;49.31;100978.27;110492;1267;23059;-47
2023/07/01 10:13:47;;;;;;;4.10;3.00;;;;;;;30.78;49.27;100975.00;110315;1263;22432;-45
2023/07/01 10:16:14;;;;;;;4.20;3.10;;;;;;;30.79;49.12;100974.04;110245;1267;22189;-45
2023/07/01 10:18:41;;;;;;;3.70;3.30;;;;;;;30.80;49.36;100973.60;110603;1263;22370;-47
2023/07/01 10:21:23;;;;;;;4.40;2.90;;;;;;;30.80;49.16;100972.11;110530;1265;22379;-47
2023/07/01 10:23:54;;;;;;;3.40;2.90;;;;;;;30.80;48.95;100967.52;110633;1263;22156;-50
2023/07/01 10:26:42;;;;;;;3.10;2.90;;;;;;;30.79;49.12;100963.63;110569;1264;22367;-50
2023/07/01 10:29:27;;;;;;;3.70;2.90;;;;;;;30.78;49.04;100965.66;110614;1264;22185;-51
2023/07/01 10:32:09;;;;;;;5.80;3.30;;;;;;;30.77;48.98;100962.94;110606;1256;22289;-50
2023/07/01 10:35:05;;;;;;;3.70;3.40;;;;;;;30.77;49.11;100966.54;110612;1255;22486;-50
2023/07/01 10:37:33;;;;;;;3.20;2.90;;;;;;;30.78;48.98;100962.13;110558;1269;22145;-46
2023/07/01 10:40:24;;;;;;;7.30;3.30;;;;;;;30.80;49.27;100961.77;110630;1256;22382;-47
2023/07/01 10:42:50;;;;;;;4.20;3.00;;;;;;;30.81;49.08;100959.50;110566;1267;22191;-45
2023/07/01 10:45:17;;;;;;;4.90;2.80;;;;;;;30.80;49.09;100957.75;110566;1256;22143;-47
2023/07/01 10:47:50;;;;;;;3.10;2.70;;;;;;;30.80;49.05;100952.10;110578;1256;22301;-48
2023/07/01 10:50:17;;;;;;;4.20;2.90;;;;;;;30.79;48.95;100948.44;110632;1263;22885;-48
2023/07/01 10:53:04;;;;;;;4.30;2.60;;;;;;;30.81;49.23;100953.09;110626;1256;22194;-45
2023/07/01 10:55:39;;;;;;;2.90;2.60;;;;;;;30.82;48.88;100949.91;110297;1259;22387;-45
2023/07/01 10:58:32;;;;;;;3.70;3.20;;;;;;;30.84;48.42;100947.73;110362;1266;22302;-46
2023/07/01 11:00:59;;;;;;;2.70;2.50;;;;;;;30.86;48.14;100948.77;110067;1262;22252;-46
2023/07/01 11:03:35;;;;;;;4.50;3.00;;;;;;;30.86;47.75;100945.89;110039;1269;23170;-47
2023/07/01 11:06:03;;;;;;;3.90;2.90;;;;;;;30.86;47.84;100945.58;110101;1262;22176;-45
2023/07/01 11:08:42;;;;;;;5.60;3.20;;;;;;;30.84;47.73;100941.59;110096;1269;23113;-47
2023/07/01 11:11:09;;;;;;;3.00;2.80;;;;;;;30.82;47.91;100943.75;109939;1265;22632;-47
2023/07/01 11:13:36;;;;;;;6.20;2.70;;;;;;;30.80;48.17;100945.77;110075;1270;22327;-46
2023/07/01 11:16:03;;;;;;;3.20;2.90;;;;;;;30.79;48.20;100945.38;110073;1275;22463;-48
2023/07/01 11:18:43;;;;;;;3.30;3.00;;;;;;;30.76;48.24;100943.91;110098;1272;22854;-45
2023/07/01 11:21:11;;;;;;;5.20;2.80;;;;;;;30.72;48.47;100942.14;110075;1269;22125;-47
2023/07/01 11:23:41;;;;;;;2.90;2.60;;;;;;;30.70;48.56;100940.76;110078;1269;22181;-48